Buchanan Airport

Jump to: basic info | weather | comments

Related pages: nearby airports | nearby navaids | notams | map

Basic information (top)

Codes: UCN GLBU
Location: lon 5.167650, lat -9.283470, elev 41 ft / 12 m msl
Status: small_airport
Scheduled airline service: no
Links: Wikipedia Mobile

Weather (top)

Current conditions for Roberts International Airport 91nm (168km) NW (rec'd 2014/10/25 14:00Z):

GLRB 251400Z 22012KT 9999 BKN020 30/25 Q1011 NOSIG

Airport forecast for Roberts International Airport 91nm (168km) NW (rec'd 2014/10/25 12:54Z):

TAF TAF GLRB 251000Z 2512/2618 24012KT 9999 BKN020 
      BECMG 2514/2516 21008KT 9999 SCT022 
      TEMPO 2517/2522 18007KT 8000 -RA/TSRA BKN018 FEW026CB

Latest comments (top)

No comments yet for Buchanan Airport

More... (top)

See also NOTAMs and nearby airports and navaids, or visit the Buchanan Airport page at the main OurAirports website..